Time;durP1;ratioP1;P1;durP2;ratioP2;P2;SDS_P1;SDS_P2;PMS_P1;PMS_P2;Temp;Humidity;BMP_temperature;BMP_pressure;BME280_temperature;BME280_humidity;BME280_pressure;Samples;Min_cycle;Max_cycle;Signal;HPM_P1;HPM_P2
2022/01/02 00:01:22;;;;;;;16.77;6.65;;;;;;;9.09;100.00;101359.06;5061302;28;20020;-74
2022/01/02 00:03:53;;;;;;;14.02;6.60;;;;;;;8.69;100.00;101269.72;5061601;28;20032;-75
2022/01/02 00:06:26;;;;;;;19.48;6.97;;;;;;;8.33;100.00;101220.50;5061534;28;20047;-74
2022/01/02 00:09:06;;;;;;;16.27;6.45;;;;;;;8.82;100.00;101271.47;5080358;28;20060;-75
2022/01/02 00:11:33;;;;;;;14.65;6.70;;;;;;;9.11;100.00;101337.88;5047057;28;20044;-77
2022/01/02 00:14:20;;;;;;;17.33;7.13;;;;;;;9.03;100.00;101319.97;5079477;28;20028;-74
2022/01/02 00:16:47;;;;;;;16.90;6.25;;;;;;;9.03;100.00;101274.34;5066688;28;20035;-75
2022/01/02 00:19:27;;;;;;;15.85;7.05;;;;;;;9.02;100.00;101291.13;5071784;28;20074;-76
2022/01/02 00:21:59;;;;;;;15.80;6.38;;;;;;;9.05;100.00;101298.78;5075014;28;20028;-74
2022/01/02 00:24:27;;;;;;;19.33;6.88;;;;;;;9.15;100.00;101305.06;5091180;28;20021;-74
2022/01/02 00:26:55;;;;;;;16.15;6.88;;;;;;;9.11;100.00;101306.25;5092268;28;20033;-75
2022/01/02 00:29:24;;;;;;;16.02;6.60;;;;;;;9.09;100.00;101292.34;5075385;28;20052;-74
2022/01/02 00:31:53;;;;;;;17.55;7.18;;;;;;;8.95;100.00;101256.47;5072795;28;20540;-74
2022/01/02 00:34:19;;;;;;;18.63;6.95;;;;;;;8.56;100.00;101189.94;5068019;28;20181;-74
2022/01/02 00:36:45;;;;;;;19.77;6.85;;;;;;;9.09;100.00;101303.72;5065686;28;20088;-76
2022/01/02 00:39:11;;;;;;;20.08;7.25;;;;;;;8.61;100.00;101244.88;5044989;28;20068;-75
2022/01/02 00:41:54;;;;;;;20.48;6.85;;;;;;;8.96;100.00;101295.03;5060511;28;20056;-75
2022/01/02 00:44:53;;;;;;;17.13;6.80;;;;;;;8.83;100.00;101292.41;5043920;28;20471;-74
2022/01/02 00:47:37;;;;;;;18.52;6.65;;;;;;;8.88;100.00;101300.84;5059286;28;20056;-74
2022/01/02 00:50:05;;;;;;;18.30;6.20;;;;;;;8.85;100.00;101301.06;5077211;28;20308;-73
2022/01/02 00:52:34;;;;;;;16.40;6.90;;;;;;;8.89;100.00;101296.41;5078030;28;20356;-74
2022/01/02 00:55:02;;;;;;;11.90;5.95;;;;;;;8.69;100.00;101264.44;5043226;28;20021;-74
2022/01/02 00:57:41;;;;;;;19.58;6.70;;;;;;;8.23;100.00;101193.16;5058958;28;20063;-75
2022/01/02 01:00:17;;;;;;;17.42;6.85;;;;;;;8.78;100.00;101265.59;5042411;28;20067;-74
2022/01/02 01:02:49;;;;;;;17.60;7.03;;;;;;;8.86;100.00;101260.63;5058877;28;20029;-73
2022/01/02 01:05:25;;;;;;;13.98;6.30;;;;;;;8.87;100.00;101256.19;5059163;28;20036;-74
2022/01/02 01:07:53;;;;;;;16.63;6.32;;;;;;;8.44;100.00;101196.09;5059254;28;20395;-74
2022/01/02 01:10:21;;;;;;;13.90;6.30;;;;;;;8.96;100.00;101260.78;5059886;28;20104;-74
2022/01/02 01:12:53;;;;;;;18.10;6.15;;;;;;;8.96;100.00;101261.63;5059365;28;20024;-74
2022/01/02 01:15:21;;;;;;;14.77;6.50;;;;;;;8.89;100.00;101231.41;5058853;28;20021;-74
2022/01/02 01:17:48;;;;;;;18.15;6.40;;;;;;;8.60;100.00;101182.66;5076938;28;20100;-74
2022/01/02 01:20:14;;;;;;;22.02;6.72;;;;;;;8.93;100.00;101232.03;5075187;28;20040;-73
2022/01/02 01:22:45;;;;;;;15.10;6.53;;;;;;;8.89;100.00;101241.13;5057709;28;20262;-74
2022/01/02 01:25:16;;;;;;;20.00;6.38;;;;;;;8.76;100.00;101188.50;5040476;28;20380;-74
2022/01/02 01:27:47;;;;;;;20.35;6.20;;;;;;;9.08;100.00;101232.69;5075688;28;20020;-73
2022/01/02 01:30:14;;;;;;;18.77;6.47;;;;;;;8.93;100.00;101222.34;5058376;28;20029;-73
2022/01/02 01:32:41;;;;;;;19.75;5.93;;;;;;;8.27;100.00;101110.44;5058193;28;20047;-73
2022/01/02 01:35:08;;;;;;;18.05;6.88;;;;;;;8.94;100.00;101216.09;5058217;28;20052;-73
2022/01/02 01:37:34;;;;;;;24.13;6.80;;;;;;;8.81;100.00;101175.84;5077410;28;20025;-73
2022/01/02 01:40:00;;;;;;;17.17;6.10;;;;;;;9.06;100.00;101216.16;5046316;28;20036;-74
2022/01/02 01:42:39;;;;;;;20.02;6.93;;;;;;;9.04;100.00;101218.94;5082926;28;20028;-73
2022/01/02 01:48:00;;;;;;;21.40;6.15;;;;;;;9.38;100.00;101185.63;5060552;28;20056;-73
2022/01/02 01:50:29;;;;;;;22.33;6.30;;;;;;;9.12;100.00;101179.66;5058178;28;20056;-74
2022/01/02 01:52:55;;;;;;;23.20;6.50;;;;;;;9.27;100.00;101201.41;5058133;28;20029;-72
2022/01/02 01:55:21;;;;;;;16.23;5.85;;;;;;;9.05;100.00;101177.59;5060427;28;20024;-72
2022/01/02 01:57:51;;;;;;;22.30;5.97;;;;;;;8.88;100.00;101132.31;5077839;28;20028;-72
2022/01/02 02:00:18;;;;;;;21.67;5.90;;;;;;;9.26;100.00;101186.53;5058209;28;20016;-73
2022/01/02 02:02:45;;;;;;;15.70;6.00;;;;;;;9.04;100.00;101141.66;5024534;28;20020;-73
2022/01/02 02:05:12;;;;;;;22.08;6.10;;;;;;;9.21;100.00;101180.78;5057472;28;20025;-73
2022/01/02 02:07:43;;;;;;;15.57;5.75;;;;;;;8.66;100.00;101095.34;5074797;28;20033;-73
2022/01/02 02:12:41;;;;;;;17.20;5.57;;;;;;;9.16;100.00;101149.50;5075761;28;20028;-73
2022/01/02 02:15:09;;;;;;;16.85;5.65;;;;;;;9.02;100.00;101123.38;5057067;28;20020;-73
2022/01/02 02:17:34;;;;;;;15.23;5.57;;;;;;;9.10;100.00;101178.94;5057591;28;20121;-73
2022/01/02 02:20:31;;;;;;;16.25;5.25;;;;;;;9.03;100.00;101159.28;5057742;28;20337;-74
2022/01/02 02:22:58;;;;;;;13.05;5.30;;;;;;;9.01;100.00;101136.63;5014678;28;20045;-74
2022/01/02 02:25:30;;;;;;;23.02;6.32;;;;;;;9.19;100.00;101135.25;5014175;28;20079;-74
2022/01/02 02:27:58;;;;;;;20.02;5.70;;;;;;;8.88;100.00;101090.16;4997511;28;20424;-73
2022/01/02 02:30:30;;;;;;;18.55;5.63;;;;;;;8.91;100.00;101092.56;5014265;28;20048;-74
2022/01/02 02:32:58;;;;;;;19.17;5.30;;;;;;;9.27;100.00;101117.06;5013461;28;20045;-74
2022/01/02 02:35:24;;;;;;;17.73;5.55;;;;;;;9.28;100.00;101123.16;4997933;28;20061;-73
2022/01/02 02:37:50;;;;;;;20.70;6.22;;;;;;;8.22;100.00;100957.34;5014705;28;20065;-73
2022/01/02 02:40:23;;;;;;;14.93;5.60;;;;;;;9.43;100.00;101118.53;5015266;28;20440;-73
2022/01/02 02:42:53;;;;;;;15.50;5.10;;;;;;;9.04;100.00;101068.78;5015647;28;20034;-74
2022/01/02 02:51:18;;;;;;;18.10;5.57;;;;;;;8.42;100.00;100951.44;5014141;28;20034;-73
2022/01/02 02:53:45;;;;;;;14.98;5.22;;;;;;;9.03;100.00;101034.63;5014198;28;20065;-73
2022/01/02 02:56:19;;;;;;;18.88;5.32;;;;;;;8.28;100.00;100909.53;5014408;28;20389;-73
2022/01/02 02:58:49;;;;;;;14.90;4.95;;;;;;;8.89;100.00;100990.91;5014585;28;20029;-73
2022/01/02 03:01:16;;;;;;;18.67;4.68;;;;;;;8.91;100.00;101026.72;5075519;28;20028;-74
2022/01/02 03:03:43;;;;;;;15.98;4.78;;;;;;;9.32;100.00;101080.66;5076438;28;20029;-74
2022/01/02 03:06:09;;;;;;;19.38;4.53;;;;;;;9.35;100.00;101058.50;5042100;28;20119;-73
2022/01/02 03:08:36;;;;;;;18.77;5.03;;;;;;;9.00;100.00;101001.47;5043539;28;20029;-74
2022/01/02 03:11:03;;;;;;;18.35;4.40;;;;;;;9.39;100.00;101058.13;5033659;28;20037;-73
2022/01/02 03:13:38;;;;;;;15.93;4.28;;;;;;;9.52;100.00;101065.94;5049950;28;20025;-73
2022/01/02 03:16:04;;;;;;;18.58;4.05;;;;;;;9.55;100.00;101049.84;5046038;28;20025;-74
2022/01/02 03:18:31;;;;;;;18.58;4.20;;;;;;;9.59;100.00;101061.03;5022899;28;20029;-74
2022/01/02 03:20:56;;;;;;;15.38;3.50;;;;;;;9.63;100.00;101083.56;5038831;28;20025;-74
2022/01/02 03:23:22;;;;;;;13.88;4.20;;;;;;;9.24;100.00;100992.59;5056147;28;20028;-74
2022/01/02 03:25:48;;;;;;;14.65;4.32;;;;;;;9.72;100.00;101067.00;5038703;28;20021;-74
2022/01/02 03:28:13;;;;;;;19.63;3.95;;;;;;;9.72;100.00;101053.81;5038129;28;20372;-74
2022/01/02 03:30:41;;;;;;;16.20;3.83;;;;;;;9.40;100.00;100995.69;5056237;28;20043;-74
2022/01/02 03:33:06;;;;;;;11.70;3.67;;;;;;;9.59;100.00;101022.31;5038064;28;20124;-74
2022/01/02 03:35:32;;;;;;;17.83;3.80;;;;;;;9.20;100.00;100957.78;5022472;28;20044;-74
2022/01/02 03:37:58;;;;;;;14.77;3.70;;;;;;;9.75;100.00;101036.91;5057818;28;20025;-74
2022/01/02 03:40:23;;;;;;;15.02;3.85;;;;;;;9.65;100.00;101006.94;5038803;28;20025;-74
2022/01/02 03:42:49;;;;;;;17.83;3.72;;;;;;;9.56;100.00;100974.25;5038843;28;20096;-73
2022/01/02 03:45:15;;;;;;;15.52;3.55;;;;;;;9.90;100.00;101017.22;5055520;28;20468;-74
2022/01/02 03:47:41;;;;;;;17.73;3.72;;;;;;;9.87;100.00;101014.81;5056200;28;20029;-74
2022/01/02 03:50:07;;;;;;;20.75;4.10;;;;;;;9.95;100.00;101022.97;5041632;28;20025;-75
2022/01/02 03:52:32;;;;;;;14.65;3.70;;;;;;;9.95;100.00;100998.38;5026668;28;20025;-72
2022/01/02 03:54:58;;;;;;;13.85;3.25;;;;;;;9.97;100.00;100991.16;5061865;28;20040;-75
2022/01/02 03:57:24;;;;;;;10.77;2.97;;;;;;;9.98;100.00;101011.31;5042878;28;20033;-73
2022/01/02 03:59:50;;;;;;;17.92;3.85;;;;;;;9.82;100.00;100966.88;5058862;28;20021;-72
2022/01/02 04:02:18;;;;;;;14.05;3.20;;;;;;;9.51;100.00;100924.50;5042996;28;20079;-73
2022/01/02 04:04:43;;;;;;;18.48;3.65;;;;;;;9.63;100.00;100943.81;5065389;28;20013;-73
2022/01/02 04:07:09;;;;;;;13.48;3.55;;;;;;;10.00;100.00;101006.75;5050099;28;20052;-73
2022/01/02 04:09:35;;;;;;;16.80;3.60;;;;;;;9.24;100.00;100874.84;5065598;28;20033;-75
2022/01/02 04:12:00;;;;;;;13.18;3.10;;;;;;;9.61;100.00;100940.44;5041865;28;20037;-74
2022/01/02 04:14:44;;;;;;;14.82;3.60;;;;;;;9.74;100.00;100964.00;5071230;28;20025;-73
2022/01/02 04:17:10;;;;;;;11.80;3.00;;;;;;;9.66;100.00;100954.09;5067228;28;20031;-74
2022/01/02 04:19:36;;;;;;;15.05;3.30;;;;;;;9.96;100.00;100986.84;5047204;28;20020;-73
2022/01/02 04:22:02;;;;;;;19.63;3.45;;;;;;;9.89;100.00;100977.78;5066293;28;20041;-74
2022/01/02 04:24:28;;;;;;;13.55;2.83;;;;;;;9.77;100.00;100945.31;5049772;28;20032;-74
2022/01/02 04:26:53;;;;;;;17.60;3.50;;;;;;;9.80;100.00;100940.63;5063976;28;20021;-73
2022/01/02 04:29:19;;;;;;;13.65;3.25;;;;;;;9.82;100.00;100954.53;5043692;28;20119;-73
2022/01/02 04:31:45;;;;;;;13.23;3.17;;;;;;;9.86;100.00;100946.38;5061023;28;20028;-73
2022/01/02 04:34:10;;;;;;;18.35;3.40;;;;;;;9.69;100.00;100919.56;5059369;28;20033;-74
2022/01/02 04:36:36;;;;;;;12.35;3.45;;;;;;;9.78;100.00;100929.34;5042812;28;20025;-74
2022/01/02 04:39:02;;;;;;;13.80;3.22;;;;;;;9.82;100.00;100943.97;5063187;28;20383;-74
2022/01/02 04:41:27;;;;;;;15.27;2.83;;;;;;;9.47;100.00;100880.94;5049426;28;20033;-73
2022/01/02 04:43:53;;;;;;;14.13;3.10;;;;;;;9.88;100.00;100945.28;5045517;28;20031;-73
2022/01/02 04:46:18;;;;;;;14.00;3.42;;;;;;;9.38;100.00;100852.69;5051352;28;20041;-73
2022/01/02 04:48:44;;;;;;;16.08;3.70;;;;;;;9.89;100.00;100922.38;5032960;28;20379;-73
2022/01/02 04:51:10;;;;;;;13.45;3.13;;;;;;;9.84;100.00;100943.84;5011453;28;20021;-73
2022/01/02 04:53:45;;;;;;;14.48;3.40;;;;;;;9.66;100.00;100890.81;5061094;28;20103;-72
2022/01/02 04:56:11;;;;;;;13.27;3.42;;;;;;;9.91;100.00;100912.53;5060882;28;20021;-73
2022/01/02 04:58:36;;;;;;;14.40;3.45;;;;;;;9.38;100.00;100835.06;5043665;28;20425;-73
2022/01/02 05:01:02;;;;;;;15.05;3.17;;;;;;;9.88;100.00;100903.09;5049740;28;20021;-73
2022/01/02 05:03:28;;;;;;;13.38;3.15;;;;;;;8.80;100.00;100717.78;5033628;28;20025;-73
2022/01/02 05:05:53;;;;;;;13.18;3.20;;;;;;;9.75;100.00;100873.41;5047569;28;20132;-73
2022/01/02 05:08:19;;;;;;;14.63;2.97;;;;;;;9.79;100.00;100890.66;5044483;28;20463;-72
2022/01/02 05:10:45;;;;;;;14.32;3.30;;;;;;;9.79;100.00;100885.38;5041975;28;20530;-72
2022/01/02 05:13:11;;;;;;;11.85;2.92;;;;;;;9.75;100.00;100887.41;5044244;28;20072;-72
2022/01/02 05:15:36;;;;;;;12.60;3.70;;;;;;;9.72;100.00;100858.69;5046292;28;20171;-72
2022/01/02 05:18:02;;;;;;;11.80;3.13;;;;;;;9.75;100.00;100883.94;5045626;28;20025;-72
2022/01/02 05:20:28;;;;;;;15.38;3.60;;;;;;;9.85;100.00;100866.38;5045257;28;20055;-72
2022/01/02 05:22:53;;;;;;;14.75;3.17;;;;;;;9.81;100.00;100865.81;5043746;28;20029;-72
2022/01/02 05:25:19;;;;;;;19.08;3.75;;;;;;;9.73;100.00;100862.16;5028601;28;20050;-72
2022/01/02 05:27:44;;;;;;;14.35;3.38;;;;;;;8.96;100.00;100761.19;5050069;28;20108;-71
2022/01/02 05:30:10;;;;;;;11.30;3.25;;;;;;;9.67;100.00;100845.00;5030960;28;20108;-71
2022/01/02 05:32:36;;;;;;;15.63;3.70;;;;;;;9.47;100.00;100804.50;5068448;28;20029;-73
2022/01/02 05:35:02;;;;;;;14.43;3.38;;;;;;;9.03;100.00;100723.81;5067618;28;20029;-73
2022/01/02 05:37:27;;;;;;;14.63;3.88;;;;;;;9.64;100.00;100813.63;5046632;28;20017;-72
2022/01/02 05:39:53;;;;;;;10.13;3.03;;;;;;;9.78;100.00;100809.84;5043982;28;20036;-73
2022/01/02 05:42:19;;;;;;;15.50;3.58;;;;;;;9.29;100.00;100759.41;5045068;28;20021;-73
2022/01/02 05:44:45;;;;;;;13.95;3.30;;;;;;;9.62;100.00;100810.28;5047554;28;20083;-71
2022/01/02 05:47:11;;;;;;;12.35;3.03;;;;;;;9.15;100.00;100752.63;5047633;28;20025;-73
2022/01/02 05:49:39;;;;;;;11.27;3.35;;;;;;;9.63;100.00;100809.34;5047206;28;20032;-73
2022/01/02 05:52:10;;;;;;;12.43;4.13;;;;;;;8.87;100.00;100697.88;5040747;28;20021;-73
2022/01/02 05:54:37;;;;;;;14.25;3.55;;;;;;;9.25;100.00;100747.44;5027100;28;20077;-73
2022/01/02 05:57:03;;;;;;;15.98;3.50;;;;;;;9.54;100.00;100800.38;5041584;28;20021;-73
2022/01/02 05:59:28;;;;;;;11.90;3.10;;;;;;;9.57;100.00;100779.03;5040265;28;20025;-73
2022/01/02 06:01:54;;;;;;;12.45;2.92;;;;;;;9.57;100.00;100779.03;5039031;28;20051;-73
2022/01/02 06:04:19;;;;;;;11.55;3.10;;;;;;;9.66;100.00;100780.06;5039174;28;20025;-74
2022/01/02 06:06:45;;;;;;;16.60;2.95;;;;;;;9.59;100.00;100752.56;5022028;28;20445;-74
2022/01/02 06:09:11;;;;;;;10.02;2.72;;;;;;;9.27;100.00;100707.78;5062676;28;20075;-73
2022/01/02 06:11:36;;;;;;;9.02;3.05;;;;;;;9.78;100.00;100776.41;5056925;28;20039;-73
2022/01/02 06:14:02;;;;;;;11.95;2.85;;;;;;;9.39;100.00;100712.03;5055591;28;20467;-74
2022/01/02 06:16:27;;;;;;;10.27;2.70;;;;;;;9.71;100.00;100784.97;5055914;28;20104;-73
2022/01/02 06:18:53;;;;;;;13.25;3.00;;;;;;;9.77;100.00;100768.63;5037459;28;20025;-73
2022/01/02 06:21:19;;;;;;;10.23;2.80;;;;;;;9.47;100.00;100720.16;5037214;28;20532;-73
2022/01/02 06:23:45;;;;;;;12.25;3.22;;;;;;;9.43;100.00;100715.25;5037616;28;20099;-74
2022/01/02 06:26:11;;;;;;;11.57;3.45;;;;;;;9.56;100.00;100723.78;5055470;28;20117;-74
2022/01/02 06:28:36;;;;;;;10.93;3.38;;;;;;;9.69;100.00;100748.16;5055563;28;20097;-74
2022/01/02 06:31:02;;;;;;;13.20;3.42;;;;;;;9.64;100.00;100738.97;5020771;28;20056;-74
2022/01/02 06:33:28;;;;;;;11.88;3.00;;;;;;;9.65;100.00;100725.69;5055349;28;20035;-72
2022/01/02 06:35:55;;;;;;;10.38;2.85;;;;;;;9.73;100.00;100738.22;5042982;28;20067;-84
2022/01/02 06:38:22;;;;;;;8.57;2.92;;;;;;;9.65;100.00;100727.44;5045726;28;20589;-82
2022/01/02 06:40:48;;;;;;;15.45;3.58;;;;;;;9.12;100.00;100633.50;5052632;28;20037;-80
2022/01/02 06:43:16;;;;;;;11.27;3.10;;;;;;;9.52;100.00;100707.41;5047238;28;20091;-81
2022/01/02 06:45:45;;;;;;;12.88;3.83;;;;;;;8.96;100.00;100610.22;5042643;28;20483;-79
2022/01/02 06:48:12;;;;;;;13.80;3.85;;;;;;;9.55;100.00;100693.13;5048800;28;20039;-78
2022/01/02 06:50:39;;;;;;;11.73;3.80;;;;;;;9.33;100.00;100663.31;5078431;28;20059;-78
2022/01/02 06:53:06;;;;;;;11.35;4.10;;;;;;;9.18;100.00;100641.72;5077629;28;20406;-78
2022/01/02 06:55:32;;;;;;;12.27;3.65;;;;;;;9.20;100.00;100666.13;5076267;28;20542;-78
2022/01/02 06:57:57;;;;;;;11.15;3.90;;;;;;;8.57;100.00;100567.81;5078693;28;20048;-77
2022/01/02 07:00:23;;;;;;;12.80;3.75;;;;;;;8.96;100.00;100639.19;5080606;28;20035;-77
2022/01/02 07:02:49;;;;;;;12.75;4.20;;;;;;;9.27;100.00;100698.09;5075893;28;20374;-75
2022/01/02 07:05:14;;;;;;;14.45;4.63;;;;;;;9.07;100.00;100670.75;5064612;28;20025;-76
2022/01/02 07:07:45;;;;;;;9.82;4.05;;;;;;;9.29;100.00;100697.94;5059449;28;20037;-77
2022/01/02 07:10:12;;;;;;;17.25;4.50;;;;;;;9.23;100.00;100690.56;5062842;28;20032;-75
2022/01/02 07:12:38;;;;;;;14.70;4.47;;;;;;;8.95;100.00;100655.97;5063970;28;20020;-74
2022/01/02 07:15:09;;;;;;;13.25;4.72;;;;;;;9.15;100.00;100691.19;5071244;28;20017;-76
2022/01/02 07:17:36;;;;;;;15.05;4.72;;;;;;;8.85;100.00;100626.91;5039851;28;20049;-75
2022/01/02 07:20:08;;;;;;;11.80;4.72;;;;;;;9.15;100.00;100683.28;5060618;28;20029;-83
2022/01/02 07:22:36;;;;;;;14.15;4.68;;;;;;;9.09;100.00;100674.09;5031928;28;20044;-78
2022/01/02 07:25:05;;;;;;;18.45;5.13;;;;;;;8.01;100.00;100494.31;5047793;28;20029;-79
2022/01/02 07:27:32;;;;;;;13.23;4.60;;;;;;;9.13;100.00;100682.56;5063788;28;20048;-78
2022/01/02 07:29:58;;;;;;;15.00;5.28;;;;;;;8.61;100.00;100606.09;5063188;28;20024;-78
2022/01/02 07:32:25;;;;;;;15.70;4.90;;;;;;;8.80;100.00;100631.72;5082417;28;20425;-78
2022/01/02 07:34:50;;;;;;;11.45;4.80;;;;;;;8.82;100.00;100656.13;5063849;28;20024;-78
2022/01/02 07:37:16;;;;;;;15.88;5.28;;;;;;;8.98;100.00;100684.69;5046812;28;20392;-80
2022/01/02 07:39:42;;;;;;;20.23;5.13;;;;;;;9.02;100.00;100694.00;5048847;28;20023;-80
2022/01/02 07:42:08;;;;;;;11.80;4.68;;;;;;;8.21;100.00;100592.66;5063901;28;20060;-78
2022/01/02 07:44:36;;;;;;;12.25;4.75;;;;;;;9.02;100.00;100698.44;5063399;28;20059;-78
2022/01/02 07:47:03;;;;;;;12.82;4.38;;;;;;;8.65;100.00;100638.25;5047565;28;20221;-78
2022/01/02 07:49:28;;;;;;;12.57;5.00;;;;;;;8.88;100.00;100710.94;5046202;28;20029;-79
2022/01/02 07:51:55;;;;;;;13.65;5.30;;;;;;;8.92;100.00;100709.69;5081762;28;20029;-79
2022/01/02 07:54:21;;;;;;;11.55;4.90;;;;;;;7.94;100.00;100563.16;5064300;28;20092;-78
2022/01/02 07:56:46;;;;;;;12.90;4.63;;;;;;;8.45;100.00;100619.66;5065215;28;20024;-77
2022/01/02 07:59:18;;;;;;;12.85;5.03;;;;;;;7.74;100.00;100493.81;5048889;28;20035;-77
2022/01/02 08:01:44;;;;;;;12.27;4.50;;;;;;;8.84;100.00;100712.16;5076384;28;20048;-79
2022/01/02 08:04:09;;;;;;;12.05;4.57;;;;;;;8.57;100.00;100612.56;5079143;28;20044;-78
2022/01/02 08:06:41;;;;;;;10.98;4.05;;;;;;;8.91;100.00;100678.25;5098700;28;20052;-84
2022/01/02 08:09:06;;;;;;;18.80;8.32;;;;;;;9.03;100.00;100668.50;5079649;28;20049;-79
2022/01/02 08:11:33;;;;;;;16.05;6.82;;;;;;;9.04;100.00;100668.38;5074632;28;20024;-78
2022/01/02 08:14:00;;;;;;;15.88;4.47;;;;;;;7.96;100.00;100478.91;5062434;28;20016;-81
2022/01/02 08:16:28;;;;;;;11.65;4.85;;;;;;;8.91;100.00;100621.13;5090676;28;20032;-83
2022/01/02 08:18:57;;;;;;;20.10;7.80;;;;;;;8.06;100.00;100469.34;5085329;28;20027;-83
2022/01/02 08:21:23;;;;;;;18.23;7.65;;;;;;;8.67;100.00;100542.38;5053975;28;20028;-78
2022/01/02 08:23:48;;;;;;;11.98;4.30;;;;;;;8.91;100.00;100581.63;5055694;28;20384;-77
2022/01/02 08:26:16;;;;;;;13.90;4.70;;;;;;;8.60;100.00;100524.59;5066980;28;20091;-79
2022/01/02 08:28:41;;;;;;;15.55;4.55;;;;;;;8.78;100.00;100554.66;5055341;28;20033;-77
2022/01/02 08:31:07;;;;;;;12.00;4.32;;;;;;;8.97;100.00;100582.94;5061183;28;20094;-77
2022/01/02 08:33:34;;;;;;;12.65;4.18;;;;;;;9.35;100.00;100647.38;5071928;28;20028;-79
2022/01/02 08:36:00;;;;;;;11.90;4.45;;;;;;;9.01;100.00;100572.97;5047503;28;20054;-79
2022/01/02 08:38:31;;;;;;;15.25;4.43;;;;;;;8.65;100.00;100532.94;5088418;28;20073;-81
2022/01/02 08:40:57;;;;;;;17.77;5.07;;;;;;;8.41;100.00;100501.63;5088377;28;20028;-82
2022/01/02 08:43:23;;;;;;;33.25;19.83;;;;;;;9.01;100.00;100573.78;5096009;28;20023;-79
2022/01/02 08:45:49;;;;;;;16.42;4.28;;;;;;;9.28;100.00;100599.59;5079251;28;20721;-77
2022/01/02 08:48:15;;;;;;;13.48;4.18;;;;;;;9.26;100.00;100588.38;5095416;28;20047;-81
2022/01/02 08:50:41;;;;;;;12.80;4.50;;;;;;;9.31;100.00;100620.44;5085410;28;20059;-79
2022/01/02 08:53:07;;;;;;;11.65;3.78;;;;;;;8.88;100.00;100525.75;5084280;28;20029;-81
2022/01/02 08:55:35;;;;;;;14.95;3.97;;;;;;;9.19;100.00;100580.16;5073069;28;20005;-82
2022/01/02 08:58:08;;;;;;;16.45;6.20;;;;;;;9.03;100.00;100531.53;5084042;28;20072;-81
2022/01/02 09:01:09;;;;;;;13.18;4.00;;;;;;;9.69;100.00;100639.22;5086806;28;20011;-81
2022/01/02 09:03:35;;;;;;;18.25;6.20;;;;;;;8.55;100.00;100457.38;5067677;28;20058;-80
2022/01/02 09:06:01;;;;;;;15.15;4.60;;;;;;;9.35;100.00;100587.59;5084728;28;20052;-80
2022/01/02 09:08:30;;;;;;;11.75;4.28;;;;;;;9.37;100.00;100574.28;5079629;28;20032;-80
2022/01/02 09:10:58;;;;;;;13.88;4.40;;;;;;;9.77;100.00;100620.94;5066159;28;20024;-77
2022/01/02 09:13:26;;;;;;;14.77;4.80;;;;;;;9.78;100.00;100649.81;5056312;28;20027;-78
2022/01/02 09:15:54;;;;;;;14.55;4.68;;;;;;;9.60;100.00;100648.75;5065085;28;20036;-83
2022/01/02 09:18:22;;;;;;;46.40;24.02;;;;;;;9.02;100.00;100541.25;5074850;28;20020;-83
2022/01/02 09:20:50;;;;;;;23.80;10.75;;;;;;;8.54;100.00;100494.38;5051473;28;20028;-82
2022/01/02 09:23:17;;;;;;;17.25;7.22;;;;;;;9.43;100.00;100630.91;5072658;28;20030;-85
2022/01/02 09:25:45;;;;;;;12.00;4.85;;;;;;;8.53;100.00;100492.69;5051251;28;20021;-79
2022/01/02 09:28:12;;;;;;;14.30;5.00;;;;;;;9.20;100.00;100587.09;5075733;28;20035;-75
2022/01/02 09:30:38;;;;;;;13.73;5.15;;;;;;;8.81;100.00;100540.41;5075494;28;20107;-76
2022/01/02 09:33:08;;;;;;;15.07;5.28;;;;;;;9.18;100.00;100581.13;5045733;28;20048;-78
2022/01/02 09:35:36;;;;;;;16.10;6.15;;;;;;;9.56;100.00;100640.28;5070758;28;20033;-75
2022/01/02 09:38:02;;;;;;;13.95;5.00;;;;;;;9.01;100.00;100560.63;5057930;28;20021;-77
2022/01/02 09:40:30;;;;;;;29.95;13.18;;;;;;;9.27;100.00;100586.59;5062880;28;20028;-78
2022/01/02 09:42:57;;;;;;;14.80;4.90;;;;;;;8.99;100.00;100549.38;5055971;28;20465;-74
2022/01/02 09:45:25;;;;;;;14.02;4.18;;;;;;;9.58;100.00;100653.31;5071265;28;20059;-76
2022/01/02 09:47:53;;;;;;;15.45;4.68;;;;;;;9.65;100.00;100638.66;5074143;28;20498;-75
2022/01/02 09:50:18;;;;;;;10.82;4.32;;;;;;;9.70;100.00;100647.00;5076692;28;20035;-76
2022/01/02 09:52:45;;;;;;;18.38;5.03;;;;;;;9.69;100.00;100663.78;5074972;28;20021;-79
2022/01/02 09:55:11;;;;;;;13.20;3.80;;;;;;;8.87;100.00;100548.63;5050628;28;20100;-78
2022/01/02 09:57:45;;;;;;;14.63;4.95;;;;;;;9.62;100.00;100645.00;5081454;28;20029;-82
2022/01/02 10:00:14;;;;;;;43.97;19.15;;;;;;;9.13;100.00;100554.34;5063532;28;20036;-81
2022/01/02 10:02:55;;;;;;;14.10;3.88;;;;;;;9.66;100.00;100642.97;5075710;28;20021;-76
2022/01/02 10:05:24;;;;;;;12.23;3.95;;;;;;;9.25;100.00;100565.63;5038871;28;20187;-77
2022/01/02 10:07:51;;;;;;;14.07;4.47;;;;;;;9.40;100.00;100595.09;5038336;28;20032;-76
2022/01/02 10:10:18;;;;;;;14.73;3.33;;;;;;;9.27;100.00;100563.69;5071501;28;20100;-76
2022/01/02 10:12:44;;;;;;;12.63;3.00;;;;;;;9.75;100.00;100665.91;5055823;28;20024;-76
2022/01/02 10:15:14;;;;;;;13.32;3.38;;;;;;;9.76;100.00;100643.00;5041209;28;20028;-75
2022/01/02 10:17:57;;;;;;;25.90;8.40;;;;;;;9.79;100.00;100650.66;5064197;28;20025;-79
2022/01/02 10:20:30;;;;;;;15.70;3.13;;;;;;;9.73;100.00;100643.28;5054440;28;20528;-75
2022/01/02 10:23:19;;;;;;;17.00;5.07;;;;;;;9.56;100.00;100597.25;5073353;28;20464;-76
2022/01/02 10:26:00;;;;;;;20.33;4.50;;;;;;;9.72;100.00;100654.78;5057810;28;20490;-73
2022/01/02 10:28:37;;;;;;;13.27;3.35;;;;;;;9.71;100.00;100645.22;5073335;28;20025;-74
2022/01/02 10:31:06;;;;;;;16.65;3.70;;;;;;;9.30;100.00;100612.66;5056978;28;20024;-74
2022/01/02 10:33:46;;;;;;;19.23;3.88;;;;;;;8.98;100.00;100560.91;5075497;28;20024;-77
2022/01/02 10:36:14;;;;;;;14.82;3.45;;;;;;;9.10;100.00;100573.03;5060752;28;20025;-77
2022/01/02 10:38:57;;;;;;;29.42;4.45;;;;;;;9.59;100.00;100655.84;5055767;28;20025;-76
2022/01/02 10:41:38;;;;;;;19.63;3.65;;;;;;;9.66;100.00;100642.97;5057922;28;20021;-77
2022/01/02 10:44:22;;;;;;;20.85;3.83;;;;;;;9.60;100.00;100654.84;5045790;28;20056;-78
2022/01/02 10:47:07;;;;;;;19.75;4.20;;;;;;;9.57;100.00;100655.13;5061419;28;20025;-78
2022/01/02 10:50:02;;;;;;;20.30;4.10;;;;;;;9.56;100.00;100647.34;5044191;28;20021;-79
2022/01/02 10:52:41;;;;;;;18.48;4.05;;;;;;;9.49;100.00;100644.41;5060597;28;20418;-78
2022/01/02 10:55:25;;;;;;;14.40;3.90;;;;;;;8.89;100.00;100551.13;5060627;28;20089;-78
2022/01/02 10:57:53;;;;;;;16.45;3.90;;;;;;;8.51;100.00;100490.19;5044891;28;20017;-79
2022/01/02 11:00:25;;;;;;;19.83;3.53;;;;;;;9.48;100.00;100670.91;5062465;28;20545;-76
2022/01/02 11:02:51;;;;;;;16.95;3.60;;;;;;;9.44;100.00;100672.13;5073323;28;20032;-76
2022/01/02 11:05:22;;;;;;;23.70;4.00;;;;;;;9.16;100.00;100617.28;5062315;28;20025;-76
2022/01/02 11:07:58;;;;;;;17.25;4.07;;;;;;;9.15;100.00;100607.72;5027698;28;20041;-77
2022/01/02 11:10:25;;;;;;;23.17;4.20;;;;;;;9.53;100.00;100658.16;5061661;28;20036;-77
2022/01/02 11:12:53;;;;;;;17.50;3.72;;;;;;;9.44;100.00;100664.19;5080446;28;20021;-76
2022/01/02 11:15:25;;;;;;;23.95;4.00;;;;;;;8.85;100.00;100557.63;5062126;28;20028;-76
2022/01/02 11:17:51;;;;;;;22.25;3.90;;;;;;;9.12;100.00;100602.69;5044629;28;20514;-77
2022/01/02 11:20:26;;;;;;;20.30;4.15;;;;;;;9.08;100.00;100600.47;5061653;28;20033;-76
2022/01/02 11:23:03;;;;;;;;;;;;;;;9.44;100.00;100672.94;5083528;28;20041;-77
2022/01/02 11:25:50;;;;;;;18.77;3.30;;;;;;;9.53;100.00;100669.53;5089878;28;19916;-77
2022/01/02 11:28:25;;;;;;;18.50;3.35;;;;;;;9.51;100.00;100671.44;5063674;28;20025;-76
2022/01/02 11:30:52;;;;;;;28.15;3.97;;;;;;;9.08;100.00;100596.00;5063289;28;20083;-78
2022/01/02 11:33:25;;;;;;;23.55;4.07;;;;;;;9.20;100.00;100613.44;5081803;28;20061;-77
2022/01/02 11:35:51;;;;;;;25.92;4.40;;;;;;;8.69;100.00;100547.53;5061310;28;20021;-78